Time;durP1;ratioP1;P1;durP2;ratioP2;P2;SDS_P1;SDS_P2;PMS_P1;PMS_P2;Temp;Humidity;BMP_temperature;BMP_pressure;BME280_temperature;BME280_humidity;BME280_pressure;Samples;Min_cycle;Max_cycle;Signal;HPM_P1;HPM_P2
2023/11/19 00:01:07;;;;;;;0.60;0.60;;;;;;;-1.15;79.26;100591.81;5066706;28;20036;-67
2023/11/19 00:03:33;;;;;;;0.50;0.50;;;;;;;-0.93;78.40;100582.53;5066653;28;20370;-68
2023/11/19 00:05:59;;;;;;;0.65;0.65;;;;;;;-0.98;78.56;100585.69;5081914;28;20021;-68
2023/11/19 00:08:24;;;;;;;1.60;1.50;;;;;;;-1.14;78.98;100573.19;5066324;28;20021;-68
2023/11/19 00:10:50;;;;;;;1.45;1.45;;;;;;;-1.06;79.35;100580.28;5066287;28;20029;-67
2023/11/19 00:13:16;;;;;;;1.20;0.95;;;;;;;-1.03;79.07;100581.28;5081767;28;20031;-68
2023/11/19 00:15:42;;;;;;;0.77;0.75;;;;;;;-1.01;79.30;100577.09;5066287;28;20071;-69
2023/11/19 00:18:07;;;;;;;0.57;0.57;;;;;;;-1.06;79.33;100565.84;5066425;28;20025;-68
2023/11/19 00:20:33;;;;;;;0.43;0.43;;;;;;;-1.05;79.46;100552.31;5066278;28;20021;-68
2023/11/19 00:22:58;;;;;;;2.15;1.02;;;;;;;-0.98;79.21;100553.44;5066146;28;20039;-67
2023/11/19 00:25:24;;;;;;;0.90;0.90;;;;;;;-0.98;79.37;100539.81;5064967;28;20036;-68
2023/11/19 00:27:50;;;;;;;0.50;0.50;;;;;;;-0.83;79.33;100542.97;5064606;28;20080;-68
2023/11/19 00:30:16;;;;;;;0.60;0.60;;;;;;;-0.81;79.23;100537.94;5065996;28;20041;-69
2023/11/19 00:32:42;;;;;;;0.50;0.50;;;;;;;-0.72;78.83;100540.00;5066101;28;20119;-68
2023/11/19 00:35:07;;;;;;;0.60;0.60;;;;;;;-0.76;78.93;100519.47;5064923;28;20040;-67
2023/11/19 00:37:33;;;;;;;0.50;0.50;;;;;;;-0.75;78.68;100520.34;5065516;28;20043;-68
2023/11/19 00:39:58;;;;;;;0.82;0.82;;;;;;;-0.68;78.52;100511.25;5065819;28;20033;-68
2023/11/19 00:42:24;;;;;;;1.70;1.60;;;;;;;-0.74;78.98;100522.09;5065577;28;20017;-68
2023/11/19 00:44:50;;;;;;;0.73;0.73;;;;;;;-0.73;79.02;100518.72;5064783;28;20027;-68
2023/11/19 00:47:15;;;;;;;0.60;0.60;;;;;;;-0.84;79.37;100500.47;5065705;28;20469;-69
2023/11/19 00:49:41;;;;;;;0.50;0.50;;;;;;;-0.80;78.91;100475.97;5065433;28;20017;-67
2023/11/19 00:52:06;;;;;;;0.70;0.70;;;;;;;-0.69;78.93;100499.31;5081059;28;20078;-68
2023/11/19 00:54:32;;;;;;;0.50;0.50;;;;;;;-0.68;79.16;100496.84;5065457;28;20034;-68
2023/11/19 00:56:57;;;;;;;0.75;0.75;;;;;;;-0.75;79.30;100493.16;5065340;28;20392;-68
2023/11/19 00:59:22;;;;;;;0.70;0.70;;;;;;;-0.73;79.43;100494.91;5080816;28;20397;-68
2023/11/19 01:01:48;;;;;;;0.85;0.85;;;;;;;-0.53;78.57;100486.34;5065419;28;20052;-68
2023/11/19 01:04:14;;;;;;;1.05;0.95;;;;;;;-0.72;78.82;100478.81;5065432;28;20033;-67
2023/11/19 01:06:41;;;;;;;0.60;0.60;;;;;;;-0.73;79.20;100472.81;5064181;28;20028;-67
2023/11/19 01:09:08;;;;;;;1.70;1.60;;;;;;;-0.66;79.08;100466.28;5065162;28;20031;-67
2023/11/19 01:11:34;;;;;;;2.15;1.38;;;;;;;-0.53;78.54;100460.84;5065169;28;20021;-68
2023/11/19 01:13:59;;;;;;;0.50;0.50;;;;;;;-0.58;78.55;100452.16;5065293;28;20021;-67
2023/11/19 01:16:26;;;;;;;0.52;0.52;;;;;;;-0.60;78.77;100452.91;5065171;28;20021;-67
2023/11/19 01:18:52;;;;;;;0.60;0.60;;;;;;;-0.63;78.79;100443.47;5065082;28;20028;-68
2023/11/19 01:21:17;;;;;;;10.55;2.40;;;;;;;-0.72;79.26;100431.25;5065283;28;20047;-68
2023/11/19 01:23:46;;;;;;;1.23;1.15;;;;;;;-0.70;79.34;100437.25;5065024;28;20064;-67
2023/11/19 01:26:14;;;;;;;1.00;0.77;;;;;;;-0.66;79.21;100420.41;5065070;28;20488;-67
2023/11/19 01:28:42;;;;;;;0.50;0.50;;;;;;;-0.63;79.08;100413.75;5063640;28;20469;-68
2023/11/19 01:31:08;;;;;;;0.60;0.60;;;;;;;-0.63;79.17;100410.31;5064690;28;20040;-67
2023/11/19 01:33:35;;;;;;;0.60;0.60;;;;;;;-0.62;79.35;100401.84;5064732;28;20465;-68
2023/11/19 01:36:01;;;;;;;0.82;0.82;;;;;;;-0.56;79.26;100399.50;5063700;28;20072;-68
2023/11/19 01:38:26;;;;;;;0.50;0.50;;;;;;;-0.52;78.91;100390.31;5064623;28;20098;-68
2023/11/19 01:40:57;;;;;;;0.60;0.60;;;;;;;-0.52;79.19;100391.19;5063323;28;20025;-67
2023/11/19 01:43:36;;;;;;;0.80;0.80;;;;;;;-0.39;78.55;100384.84;5080248;28;20092;-68
2023/11/19 01:46:06;;;;;;;0.70;0.70;;;;;;;-0.37;78.26;100364.50;5064734;28;20423;-68
2023/11/19 01:48:34;;;;;;;0.88;0.88;;;;;;;-0.17;77.49;100372.84;5064745;28;20021;-68
2023/11/19 01:51:01;;;;;;;1.70;1.60;;;;;;;-0.23;77.69;100366.66;5063425;28;20025;-69
2023/11/19 01:53:27;;;;;;;0.50;0.50;;;;;;;-0.05;77.28;100371.53;5064624;28;20031;-68
2023/11/19 01:55:53;;;;;;;0.55;0.55;;;;;;;-0.30;78.01;100371.53;5064661;28;20083;-67
2023/11/19 01:58:19;;;;;;;0.68;0.68;;;;;;;-0.50;78.85;100358.94;5063505;28;20025;-67
2023/11/19 02:00:45;;;;;;;0.70;0.55;;;;;;;-0.29;78.36;100360.50;5064806;28;20091;-68
2023/11/19 02:03:11;;;;;;;2.85;0.85;;;;;;;-0.28;78.54;100362.25;5064899;28;20031;-69
2023/11/19 02:05:38;;;;;;;1.35;1.25;;;;;;;-0.22;77.91;100361.59;5080074;28;20025;-68
2023/11/19 02:08:04;;;;;;;1.38;0.68;;;;;;;-0.37;78.45;100338.97;5064859;28;20021;-67
2023/11/19 02:10:29;;;;;;;0.55;0.55;;;;;;;-0.22;77.94;100342.88;5064655;28;20084;-68
2023/11/19 02:12:55;;;;;;;0.65;0.65;;;;;;;-0.34;78.07;100326.34;5064737;28;20021;-67
2023/11/19 02:15:21;;;;;;;0.70;0.70;;;;;;;-0.21;77.96;100321.66;5064446;28;20025;-68
2023/11/19 02:17:47;;;;;;;0.80;0.80;;;;;;;-0.29;77.85;100323.94;5063313;28;20025;-67
2023/11/19 02:20:14;;;;;;;0.55;0.55;;;;;;;0.06;76.67;100315.75;5064516;28;20460;-68
2023/11/19 02:22:40;;;;;;;0.70;0.70;;;;;;;-0.20;77.49;100313.16;5064672;28;20076;-68
2023/11/19 02:25:17;;;;;;;1.00;1.00;;;;;;;-0.02;77.16;100305.28;5064580;28;20032;-68
2023/11/19 02:27:48;;;;;;;0.65;0.65;;;;;;;-0.08;77.07;100295.72;5064441;28;20199;-68
2023/11/19 02:30:14;;;;;;;0.60;0.60;;;;;;;-0.10;77.37;100292.25;5063911;28;20089;-68
2023/11/19 02:32:41;;;;;;;0.80;0.80;;;;;;;0.18;75.88;100279.50;5063328;28;20036;-68
2023/11/19 02:35:11;;;;;;;0.50;0.50;;;;;;;-0.02;76.39;100274.66;5064500;28;20313;-67
2023/11/19 02:37:37;;;;;;;0.55;0.55;;;;;;;-0.19;77.18;100279.19;5062727;28;20032;-68
2023/11/19 02:40:05;;;;;;;0.70;0.70;;;;;;;-0.26;77.68;100275.56;5079853;28;20025;-67
2023/11/19 02:42:31;;;;;;;0.90;0.90;;;;;;;-0.22;77.62;100256.97;5064262;28;20047;-67
2023/11/19 02:44:56;;;;;;;0.85;0.85;;;;;;;-0.06;76.69;100260.03;5068144;28;20090;-67
2023/11/19 02:47:23;;;;;;;0.60;0.60;;;;;;;-0.16;77.10;100241.03;5083235;28;20024;-67
2023/11/19 02:49:49;;;;;;;0.52;0.52;;;;;;;-0.13;76.92;100239.41;5066619;28;20025;-67
2023/11/19 02:52:14;;;;;;;0.70;0.70;;;;;;;-0.21;77.54;100237.44;5083374;28;20028;-67
2023/11/19 02:54:41;;;;;;;0.65;0.60;;;;;;;-0.29;77.90;100230.38;5067862;28;20029;-67
2023/11/19 02:57:08;;;;;;;0.60;0.60;;;;;;;-0.19;77.16;100225.63;5068005;28;20104;-67
2023/11/19 02:59:38;;;;;;;0.50;0.50;;;;;;;-0.28;77.71;100206.63;5066569;28;20067;-68
2023/11/19 03:02:06;;;;;;;0.50;0.50;;;;;;;-0.19;77.40;100220.50;5066843;28;20025;-67
2023/11/19 03:04:33;;;;;;;0.60;0.60;;;;;;;-0.02;76.50;100210.84;5067707;28;20066;-68
2023/11/19 03:06:58;;;;;;;0.47;0.47;;;;;;;0.11;75.88;100209.53;5067909;28;20044;-67
2023/11/19 03:09:24;;;;;;;0.50;0.50;;;;;;;-0.15;76.99;100207.91;5067434;28;20021;-67
2023/11/19 03:11:50;;;;;;;0.50;0.50;;;;;;;0.02;76.81;100215.22;5067180;28;20435;-68
2023/11/19 03:14:15;;;;;;;0.52;0.52;;;;;;;-0.02;76.92;100198.91;5067580;28;20060;-68
2023/11/19 03:16:40;;;;;;;0.95;0.93;;;;;;;0.13;76.50;100192.56;5067504;28;20029;-68
2023/11/19 03:19:06;;;;;;;0.70;0.70;;;;;;;0.15;75.94;100179.84;5067282;28;20017;-67
2023/11/19 03:21:31;;;;;;;0.55;0.55;;;;;;;-0.04;76.51;100164.84;5067709;28;20221;-68
2023/11/19 03:24:00;;;;;;;0.73;0.73;;;;;;;-0.04;76.71;100171.63;5067352;28;20024;-68
2023/11/19 03:26:28;;;;;;;0.50;0.50;;;;;;;-0.14;77.31;100163.69;5067276;28;20072;-68
2023/11/19 03:28:54;;;;;;;1.05;0.85;;;;;;;-0.09;77.18;100156.16;5067209;28;20049;-67
2023/11/19 03:31:20;;;;;;;0.82;0.70;;;;;;;-0.12;77.56;100148.41;5065920;28;20031;-68
2023/11/19 03:33:45;;;;;;;0.70;0.70;;;;;;;0.07;76.80;100151.53;5067084;28;20074;-68
2023/11/19 03:36:12;;;;;;;0.50;0.50;;;;;;;-0.09;77.60;100145.97;5067388;28;20220;-69
2023/11/19 03:38:38;;;;;;;0.73;0.73;;;;;;;0.27;76.55;100130.84;5066983;28;20087;-68
2023/11/19 03:41:21;;;;;;;0.73;0.73;;;;;;;-0.01;77.48;100134.31;5067062;28;20016;-67
2023/11/19 03:43:46;;;;;;;0.52;0.52;;;;;;;0.06;77.36;100134.50;5065772;28;20503;-67
2023/11/19 03:46:19;;;;;;;0.50;0.50;;;;;;;0.05;77.30;100123.41;5066974;28;20096;-68
2023/11/19 03:48:46;;;;;;;1.25;1.20;;;;;;;-0.04;77.55;100126.56;5066989;28;20025;-67
2023/11/19 03:51:15;;;;;;;0.50;0.50;;;;;;;-0.03;77.58;100110.41;5066952;28;20093;-68
2023/11/19 03:53:43;;;;;;;1.20;0.95;;;;;;;0.06;77.37;100114.06;5067030;28;20021;-68
2023/11/19 03:56:09;;;;;;;4.70;1.25;;;;;;;0.16;77.19;100105.84;5066159;28;20025;-68
2023/11/19 03:58:35;;;;;;;1.50;0.88;;;;;;;0.05;77.07;100099.59;5065429;28;20017;-68
2023/11/19 04:01:01;;;;;;;0.65;0.65;;;;;;;-0.08;77.23;100067.72;5067017;28;20021;-67
2023/11/19 04:03:26;;;;;;;0.88;0.88;;;;;;;0.03;76.98;100070.59;5065530;28;20032;-68
2023/11/19 04:05:52;;;;;;;0.50;0.50;;;;;;;-0.04;77.24;100072.09;5066510;28;20037;-67
2023/11/19 04:08:17;;;;;;;0.50;0.50;;;;;;;0.11;76.61;100064.03;5066683;28;20032;-68
2023/11/19 04:10:42;;;;;;;0.50;0.50;;;;;;;0.13;76.48;100069.19;5066562;28;20029;-68
2023/11/19 04:13:08;;;;;;;0.50;0.50;;;;;;;-0.05;76.74;100073.75;5066425;28;20021;-67
2023/11/19 04:15:33;;;;;;;0.60;0.60;;;;;;;-0.17;77.68;100070.84;5066471;28;20025;-68
2023/11/19 04:17:58;;;;;;;0.60;0.60;;;;;;;-0.23;78.00;100051.13;5066354;28;20048;-68
2023/11/19 04:20:23;;;;;;;1.13;0.98;;;;;;;-0.21;77.89;100051.19;5066407;28;20350;-67
2023/11/19 04:22:51;;;;;;;0.50;0.50;;;;;;;-0.08;77.54;100055.81;5065072;28;20013;-68
2023/11/19 04:25:16;;;;;;;0.52;0.52;;;;;;;-0.22;77.93;100036.69;5066316;28;20021;-68
2023/11/19 04:27:42;;;;;;;0.63;0.63;;;;;;;-0.11;78.11;100054.88;5066063;28;20100;-69
2023/11/19 04:30:10;;;;;;;0.50;0.50;;;;;;;-0.06;77.44;100049.06;5066106;28;20029;-68
2023/11/19 04:32:36;;;;;;;0.50;0.50;;;;;;;0.05;77.02;100046.81;5066220;28;20032;-68
2023/11/19 04:35:01;;;;;;;0.43;0.43;;;;;;;-0.10;77.96;100047.25;5066262;28;20020;-68
2023/11/19 04:37:26;;;;;;;0.50;0.50;;;;;;;-0.01;77.96;100042.44;5081265;28;20025;-68
2023/11/19 04:39:52;;;;;;;0.60;0.60;;;;;;;-0.06;77.90;100033.75;5065945;28;20117;-66
2023/11/19 04:42:17;;;;;;;0.80;0.80;;;;;;;-0.13;78.38;100032.72;5065919;28;20036;-67
2023/11/19 04:44:43;;;;;;;0.50;0.50;;;;;;;-0.18;78.78;100023.19;5065740;28;20020;-67
2023/11/19 04:47:10;;;;;;;0.50;0.50;;;;;;;0.09;77.94;100023.13;5064388;28;20040;-68
2023/11/19 04:49:40;;;;;;;0.60;0.60;;;;;;;0.30;77.58;100021.13;5065865;28;20097;-67
2023/11/19 04:52:05;;;;;;;0.60;0.60;;;;;;;-0.07;78.23;100003.97;5065586;28;20021;-69
2023/11/19 04:54:30;;;;;;;0.90;0.90;;;;;;;0.19;78.12;100006.38;5065846;28;20035;-67
2023/11/19 04:56:56;;;;;;;0.60;0.60;;;;;;;0.11;78.42;100001.06;5065493;28;20048;-67
2023/11/19 04:59:21;;;;;;;0.57;0.57;;;;;;;0.09;78.53;100012.06;5065547;28;20017;-67
2023/11/19 05:01:48;;;;;;;0.63;0.63;;;;;;;0.31;77.74;99999.88;5065710;28;20025;-67
2023/11/19 05:04:13;;;;;;;0.77;0.77;;;;;;;0.35;77.83;99994.88;5065542;28;20082;-68
2023/11/19 05:06:38;;;;;;;0.52;0.52;;;;;;;0.14;78.58;99990.06;5064669;28;20025;-67
2023/11/19 05:09:12;;;;;;;0.98;0.95;;;;;;;0.23;78.51;99994.56;5064029;28;20021;-68
2023/11/19 05:11:38;;;;;;;0.50;0.50;;;;;;;0.12;79.09;99991.72;5065203;28;20025;-68
2023/11/19 05:14:05;;;;;;;0.60;0.60;;;;;;;0.30;78.35;99995.59;5065433;28;20031;-68
2023/11/19 05:16:30;;;;;;;0.50;0.50;;;;;;;0.21;78.49;99976.66;5065266;28;20029;-68
2023/11/19 05:18:56;;;;;;;1.48;1.05;;;;;;;0.17;79.06;99976.53;5063668;28;20020;-67
2023/11/19 05:21:21;;;;;;;0.43;0.43;;;;;;;0.31;78.63;99982.00;5065357;28;20092;-68
2023/11/19 05:23:47;;;;;;;0.60;0.60;;;;;;;0.20;78.75;99981.72;5064925;28;20417;-67
2023/11/19 05:26:20;;;;;;;1.08;0.98;;;;;;;0.14;79.39;99987.53;5065032;28;20029;-67
2023/11/19 05:28:46;;;;;;;1.95;1.52;;;;;;;0.12;79.48;99976.41;5065099;28;20035;-67
2023/11/19 05:31:11;;;;;;;2.30;1.23;;;;;;;0.16;79.26;99967.97;5065023;28;20021;-68
2023/11/19 05:33:36;;;;;;;0.90;0.90;;;;;;;0.11;79.26;99972.13;5065186;28;20437;-67
2023/11/19 05:36:03;;;;;;;0.70;0.70;;;;;;;0.22;79.14;99960.50;5065085;28;20063;-69
2023/11/19 05:38:29;;;;;;;1.38;1.23;;;;;;;0.18;78.99;99965.47;5080318;28;20048;-68
2023/11/19 05:40:55;;;;;;;0.57;0.57;;;;;;;0.14;79.33;99969.66;5065197;28;20025;-68
2023/11/19 05:43:21;;;;;;;0.63;0.63;;;;;;;0.14;79.64;99968.78;5064665;28;20025;-67
2023/11/19 05:45:46;;;;;;;0.70;0.70;;;;;;;0.15;79.67;99966.25;5065143;28;20021;-67
2023/11/19 05:48:12;;;;;;;0.70;0.70;;;;;;;0.33;78.75;99962.47;5080337;28;20143;-68
2023/11/19 05:50:38;;;;;;;0.88;0.88;;;;;;;0.24;79.19;99960.53;5064731;28;20025;-69
2023/11/19 05:53:05;;;;;;;0.50;0.50;;;;;;;0.24;79.32;99965.63;5065069;28;20051;-69
2023/11/19 05:55:34;;;;;;;2.08;1.98;;;;;;;0.27;79.34;99962.31;5064824;28;20029;-67
2023/11/19 05:57:59;;;;;;;0.70;0.70;;;;;;;0.19;79.65;99968.06;5080160;28;20120;-67
2023/11/19 06:00:26;;;;;;;0.50;0.50;;;;;;;0.20;79.79;99954.50;5064792;28;20131;-68
2023/11/19 06:02:52;;;;;;;0.50;0.50;;;;;;;0.26;79.48;99952.94;5064774;28;20045;-68
2023/11/19 06:05:18;;;;;;;0.50;0.50;;;;;;;0.21;79.39;99951.13;5064612;28;20028;-67
2023/11/19 06:07:43;;;;;;;0.93;0.70;;;;;;;0.16;79.84;99942.47;5064639;28;20032;-67
2023/11/19 06:10:10;;;;;;;0.60;0.60;;;;;;;0.13;80.09;99937.28;5064370;28;20040;-68
2023/11/19 06:12:38;;;;;;;0.50;0.50;;;;;;;0.23;79.99;99939.25;5064627;28;20032;-68
2023/11/19 06:15:05;;;;;;;1.02;0.82;;;;;;;0.29;79.82;99941.09;5064788;28;20036;-67
2023/11/19 06:17:30;;;;;;;0.50;0.50;;;;;;;0.28;79.76;99944.47;5064668;28;20020;-68
2023/11/19 06:19:55;;;;;;;0.50;0.50;;;;;;;0.33;79.87;99944.59;5068524;28;20053;-68
2023/11/19 06:22:21;;;;;;;1.08;1.05;;;;;;;0.30;79.83;99934.31;5068719;28;20036;-67
2023/11/19 06:24:46;;;;;;;0.50;0.50;;;;;;;0.23;80.13;99938.38;5068577;28;20052;-69
2023/11/19 06:27:12;;;;;;;0.50;0.50;;;;;;;0.23;80.40;99920.50;5068351;28;20663;-70
2023/11/19 06:29:40;;;;;;;0.82;0.77;;;;;;;0.37;79.97;99938.72;5068488;28;20029;-67
2023/11/19 06:32:06;;;;;;;0.73;0.73;;;;;;;0.27;80.38;99941.91;5068515;28;20100;-68
2023/11/19 06:34:33;;;;;;;0.50;0.50;;;;;;;0.42;80.08;99928.63;5068211;28;20025;-69
2023/11/19 06:36:58;;;;;;;1.13;1.02;;;;;;;0.24;80.29;99915.44;5068511;28;20025;-68
2023/11/19 06:39:23;;;;;;;0.68;0.68;;;;;;;0.27;80.62;99926.56;5068153;28;20037;-68
2023/11/19 06:41:49;;;;;;;0.60;0.60;;;;;;;0.26;80.93;99906.97;5068134;28;20032;-68
2023/11/19 06:44:14;;;;;;;0.50;0.50;;;;;;;0.38;80.74;99916.63;5068290;28;20020;-68
2023/11/19 06:46:40;;;;;;;0.50;0.50;;;;;;;0.55;79.97;99912.81;5068128;28;20057;-68
2023/11/19 06:49:07;;;;;;;1.27;1.20;;;;;;;0.47;80.44;99899.84;5068142;28;20076;-68
2023/11/19 06:51:33;;;;;;;0.68;0.68;;;;;;;0.46;80.61;99910.03;5068097;28;20168;-68
2023/11/19 06:53:59;;;;;;;4.63;3.05;;;;;;;0.37;80.99;99913.19;5068037;28;20474;-68
2023/11/19 06:56:24;;;;;;;0.75;0.60;;;;;;;0.82;79.33;99910.88;5067857;28;20032;-68
2023/11/19 06:58:51;;;;;;;0.50;0.50;;;;;;;0.46;80.65;99899.81;5066854;28;20088;-68
2023/11/19 07:01:17;;;;;;;1.17;0.98;;;;;;;0.59;80.54;99886.50;5067792;28;20077;-68
2023/11/19 07:03:44;;;;;;;0.52;0.52;;;;;;;0.60;80.15;99889.94;5066468;28;20025;-69
2023/11/19 07:06:10;;;;;;;1.55;0.85;;;;;;;0.49;80.75;99893.09;5083232;28;20021;-68
2023/11/19 07:08:36;;;;;;;0.50;0.50;;;;;;;0.41;81.12;99873.28;5068002;28;20017;-67
2023/11/19 07:11:02;;;;;;;0.60;0.60;;;;;;;0.49;80.58;99869.22;5067475;28;20255;-67
2023/11/19 07:13:28;;;;;;;0.52;0.52;;;;;;;0.36;81.42;99863.84;5066331;28;20108;-69
2023/11/19 07:15:55;;;;;;;0.85;0.82;;;;;;;0.42;81.50;99873.31;5066306;28;20024;-68
2023/11/19 07:18:22;;;;;;;1.45;0.88;;;;;;;0.43;81.47;99875.03;5066113;28;20024;-68
2023/11/19 07:20:48;;;;;;;1.00;0.90;;;;;;;0.47;81.56;99853.88;5067436;28;20044;-68
2023/11/19 07:23:14;;;;;;;3.33;1.27;;;;;;;0.70;80.84;99852.69;5082813;28;20029;-69
2023/11/19 07:25:39;;;;;;;0.50;0.50;;;;;;;0.59;81.57;99857.56;5067372;28;20029;-67
2023/11/19 07:28:05;;;;;;;2.58;1.00;;;;;;;0.47;81.56;99843.66;5067298;28;20429;-68
2023/11/19 07:30:30;;;;;;;0.90;0.90;;;;;;;0.55;81.63;99860.84;5066424;28;20017;-67
2023/11/19 07:32:56;;;;;;;0.40;0.40;;;;;;;0.57;81.63;99861.75;5067467;28;20082;-67
2023/11/19 07:35:21;;;;;;;1.05;1.05;;;;;;;0.53;81.76;99857.41;5067272;28;20120;-68
2023/11/19 07:37:47;;;;;;;0.55;0.55;;;;;;;0.72;81.01;99839.09;5066918;28;20071;-68
2023/11/19 07:40:13;;;;;;;0.73;0.70;;;;;;;0.53;81.79;99836.97;5067120;28;20029;-67
2023/11/19 07:42:38;;;;;;;0.50;0.50;;;;;;;0.57;81.93;99831.97;5066938;28;20033;-70
2023/11/19 07:45:05;;;;;;;0.60;0.60;;;;;;;0.65;81.81;99837.25;5067120;28;20054;-68
2023/11/19 07:47:30;;;;;;;0.85;0.82;;;;;;;0.72;81.51;99825.47;5066826;28;20021;-68
2023/11/19 07:49:56;;;;;;;0.70;0.70;;;;;;;0.66;81.96;99825.31;5066907;28;20025;-67
2023/11/19 07:52:21;;;;;;;1.38;1.27;;;;;;;0.86;81.45;99823.22;5067130;28;20017;-69
2023/11/19 07:54:46;;;;;;;0.63;0.63;;;;;;;0.90;81.45;99840.34;5066870;28;20025;-68
2023/11/19 07:57:12;;;;;;;1.92;1.33;;;;;;;0.97;81.29;99821.78;5066766;28;20028;-69
2023/11/19 07:59:37;;;;;;;0.60;0.60;;;;;;;0.84;81.54;99823.19;5066845;28;20061;-67
2023/11/19 08:02:04;;;;;;;0.77;0.77;;;;;;;0.80;81.76;99823.09;5066679;28;20055;-67
2023/11/19 08:04:30;;;;;;;0.70;0.70;;;;;;;1.04;81.41;99827.00;5082072;28;20125;-68
2023/11/19 08:06:55;;;;;;;0.65;0.65;;;;;;;0.86;81.94;99829.19;5066577;28;20034;-68
2023/11/19 08:09:20;;;;;;;1.33;0.93;;;;;;;1.15;80.99;99840.88;5066425;28;20032;-69
2023/11/19 08:11:46;;;;;;;2.08;0.70;;;;;;;0.99;81.82;99844.81;5066421;28;20028;-71
2023/11/19 08:14:11;;;;;;;0.75;0.75;;;;;;;0.95;82.29;99831.09;5065328;28;20033;-68
2023/11/19 08:16:38;;;;;;;0.88;0.88;;;;;;;1.05;81.79;99821.06;5066366;28;20024;-68
2023/11/19 08:19:03;;;;;;;2.05;1.00;;;;;;;0.98;82.52;99820.94;5066369;28;20017;-68
2023/11/19 08:21:29;;;;;;;1.17;1.08;;;;;;;1.22;81.57;99823.97;5066327;28;20076;-69
2023/11/19 08:23:54;;;;;;;14.90;2.58;;;;;;;0.98;81.96;99800.47;5066405;28;20424;-68
2023/11/19 08:26:20;;;;;;;1.02;1.02;;;;;;;1.15;82.26;99820.41;5066033;28;20497;-69
2023/11/19 08:28:45;;;;;;;1.02;0.70;;;;;;;1.21;82.28;99804.34;5066155;28;20025;-69
2023/11/19 08:31:10;;;;;;;0.93;0.93;;;;;;;1.27;82.07;99841.94;5065902;28;20021;-69
2023/11/19 08:33:36;;;;;;;0.93;0.93;;;;;;;1.15;81.96;99801.66;5081437;28;20025;-69
2023/11/19 08:36:03;;;;;;;1.95;1.85;;;;;;;1.34;81.65;99802.91;5066067;28;20381;-69
2023/11/19 08:38:29;;;;;;;0.80;0.80;;;;;;;1.32;81.60;99812.22;5065612;28;20105;-69
2023/11/19 08:40:59;;;;;;;0.93;0.68;;;;;;;1.35;81.45;99796.94;5081278;28;20021;-68
2023/11/19 08:43:24;;;;;;;0.65;0.65;;;;;;;1.27;81.88;99798.47;5065925;28;20494;-68
2023/11/19 08:45:50;;;;;;;0.50;0.50;;;;;;;1.22;82.23;99791.59;5065962;28;20090;-69
2023/11/19 08:48:15;;;;;;;0.60;0.60;;;;;;;1.36;81.84;99799.53;5065819;28;20052;-69
2023/11/19 08:50:40;;;;;;;0.90;0.90;;;;;;;1.38;81.68;99791.88;5065760;28;20029;-69
2023/11/19 08:53:06;;;;;;;0.73;0.63;;;;;;;1.31;81.40;99798.56;5065566;28;20406;-69
2023/11/19 08:55:32;;;;;;;0.60;0.60;;;;;;;1.41;81.76;99791.06;5065832;28;20021;-70
2023/11/19 08:57:58;;;;;;;0.80;0.80;;;;;;;1.41;82.11;99789.38;5065523;28;20027;-69
2023/11/19 09:00:23;;;;;;;1.05;0.85;;;;;;;1.41;82.07;99791.94;5065619;28;20029;-69
2023/11/19 09:02:48;;;;;;;1.00;0.90;;;;;;;1.51;81.99;99781.88;5064477;28;20067;-69
2023/11/19 09:05:14;;;;;;;0.70;0.70;;;;;;;1.50;82.15;99785.28;5065667;28;20025;-69
2023/11/19 09:07:39;;;;;;;0.60;0.60;;;;;;;1.59;81.98;99788.00;5065592;28;20080;-69
2023/11/19 09:10:05;;;;;;;2.03;1.83;;;;;;;1.62;81.83;99772.72;5065069;28;20044;-70
2023/11/19 09:12:31;;;;;;;0.50;0.50;;;;;;;1.75;81.84;99775.47;5065301;28;20025;-69
2023/11/19 09:14:56;;;;;;;1.67;1.58;;;;;;;1.73;81.35;99783.13;5065567;28;20084;-69
2023/11/19 09:17:21;;;;;;;0.60;0.60;;;;;;;1.70;81.56;99777.97;5065366;28;20025;-70
2023/11/19 09:19:47;;;;;;;0.98;0.95;;;;;;;1.75;81.76;99788.28;5064198;28;20021;-68
2023/11/19 09:22:12;;;;;;;1.65;1.30;;;;;;;1.76;81.33;99756.75;5065317;28;20114;-70
2023/11/19 09:24:37;;;;;;;1.45;1.40;;;;;;;1.77;81.79;99773.81;5065273;28;20098;-69
2023/11/19 09:27:03;;;;;;;0.82;0.82;;;;;;;1.95;80.67;99797.16;5065100;28;20028;-71
2023/11/19 09:29:32;;;;;;;0.60;0.60;;;;;;;1.89;81.17;99774.03;5065180;28;20464;-68
2023/11/19 09:31:57;;;;;;;0.50;0.50;;;;;;;1.93;80.78;99769.81;5065285;28;20021;-69
2023/11/19 09:34:23;;;;;;;0.50;0.50;;;;;;;1.88;80.83;99768.88;5065016;28;20029;-70
2023/11/19 09:36:48;;;;;;;3.50;1.73;;;;;;;1.88;80.85;99779.13;5065335;28;20033;-70
2023/11/19 09:39:17;;;;;;;0.55;0.55;;;;;;;1.94;81.28;99767.28;5064769;28;20633;-69
2023/11/19 09:41:44;;;;;;;0.70;0.70;;;;;;;1.90;80.96;99768.06;5064624;28;20025;-69
2023/11/19 09:44:11;;;;;;;0.60;0.60;;;;;;;2.08;80.57;99753.84;5065190;28;20045;-68
2023/11/19 09:46:39;;;;;;;1.08;0.85;;;;;;;2.16;79.80;99761.63;5064743;28;20021;-68
2023/11/19 09:49:08;;;;;;;1.30;1.20;;;;;;;2.11;80.26;99761.56;5064737;28;20049;-66
2023/11/19 09:51:34;;;;;;;1.23;0.73;;;;;;;1.92;80.99;99751.03;5064605;28;20080;-67
2023/11/19 09:53:59;;;;;;;0.50;0.50;;;;;;;2.06;80.45;99752.97;5064175;28;20032;-68
2023/11/19 09:56:26;;;;;;;1.33;1.23;;;;;;;2.04;80.47;99745.25;5064692;28;20025;-70
2023/11/19 09:58:51;;;;;;;1.77;0.73;;;;;;;1.98;81.13;99757.97;5064793;28;20025;-66
2023/11/19 10:01:16;;;;;;;0.52;0.52;;;;;;;2.01;81.35;99750.34;5063237;28;20032;-66
2023/11/19 10:03:43;;;;;;;1.08;0.98;;;;;;;2.04;81.20;99746.94;5063535;28;20028;-67
2023/11/19 10:06:10;;;;;;;3.28;1.25;;;;;;;2.06;81.21;99730.75;5065028;28;20021;-67
2023/11/19 10:08:39;;;;;;;0.50;0.50;;;;;;;2.20;80.65;99730.13;5064882;28;20021;-67
2023/11/19 10:11:06;;;;;;;0.90;0.90;;;;;;;2.33;80.13;99729.44;5064790;28;20025;-68
2023/11/19 10:13:35;;;;;;;1.13;1.02;;;;;;;2.18;80.82;99724.09;5064673;28;20032;-66
2023/11/19 10:16:04;;;;;;;0.57;0.57;;;;;;;2.43;79.54;99724.47;5064597;28;20031;-65
2023/11/19 10:18:30;;;;;;;0.95;0.95;;;;;;;2.23;80.12;99713.13;5064591;28;20428;-66
2023/11/19 10:20:55;;;;;;;0.60;0.60;;;;;;;2.28;80.63;99720.00;5064457;28;20039;-66
2023/11/19 10:23:21;;;;;;;0.88;0.88;;;;;;;2.31;80.74;99714.91;5064900;28;20052;-66
2023/11/19 10:25:46;;;;;;;2.13;1.35;;;;;;;2.43;79.76;99704.81;5064580;28;20021;-66
2023/11/19 10:28:14;;;;;;;1.63;1.52;;;;;;;2.33;80.63;99713.25;5064356;28;20025;-66
2023/11/19 10:30:41;;;;;;;0.50;0.50;;;;;;;2.48;79.81;99702.31;5064494;28;20025;-66
2023/11/19 10:33:07;;;;;;;0.50;0.50;;;;;;;2.55;79.22;99703.28;5064720;28;20025;-66
2023/11/19 10:35:51;;;;;;;0.75;0.75;;;;;;;2.56;79.24;99699.84;5064380;28;20055;-67
2023/11/19 10:38:16;;;;;;;0.50;0.50;;;;;;;2.48;79.73;99682.69;5079854;28;20062;-69
2023/11/19 10:40:42;;;;;;;1.80;1.60;;;;;;;2.66;78.82;99699.16;5064327;28;20021;-68
2023/11/19 10:43:08;;;;;;;1.85;0.90;;;;;;;2.55;79.18;99693.91;5064397;28;20405;-68
2023/11/19 10:45:34;;;;;;;1.02;0.85;;;;;;;2.48;80.05;99687.81;5064515;28;20106;-66
2023/11/19 10:48:00;;;;;;;1.77;1.30;;;;;;;2.56;80.10;99674.22;5064306;28;20025;-67
2023/11/19 10:50:29;;;;;;;0.70;0.70;;;;;;;2.79;78.72;99658.28;5079661;28;20105;-69
2023/11/19 10:52:58;;;;;;;0.60;0.60;;;;;;;2.75;79.20;99677.03;5064512;28;20085;-68
2023/11/19 10:55:28;;;;;;;1.58;1.35;;;;;;;2.91;78.53;99673.78;5064158;28;20063;-69
2023/11/19 10:58:05;;;;;;;1.38;1.13;;;;;;;2.66;79.28;99676.09;5064536;28;20029;-68
2023/11/19 11:00:55;;;;;;;1.13;0.98;;;;;;;2.68;79.84;99671.84;5079614;28;20412;-67
2023/11/19 11:03:24;;;;;;;0.73;0.73;;;;;;;2.77;79.70;99663.38;5064432;28;20021;-65
2023/11/19 11:05:50;;;;;;;1.85;1.65;;;;;;;2.75;80.02;99670.19;5066117;28;20040;-66
2023/11/19 11:08:17;;;;;;;1.38;0.80;;;;;;;3.06;78.58;99664.56;5067736;28;20037;-67
2023/11/19 11:10:44;;;;;;;0.50;0.50;;;;;;;2.97;78.78;99673.03;5067352;28;20028;-66
2023/11/19 11:13:12;;;;;;;0.70;0.70;;;;;;;2.88;78.91;99693.41;5066146;28;20075;-68
2023/11/19 11:15:38;;;;;;;3.15;1.52;;;;;;;2.93;79.01;99677.25;5066127;28;20021;-67
2023/11/19 11:18:08;;;;;;;1.05;1.05;;;;;;;3.05;78.28;99673.09;5067684;28;20025;-67
2023/11/19 11:20:33;;;;;;;1.33;1.23;;;;;;;2.92;78.73;99670.41;5067694;28;20099;-67
2023/11/19 11:23:38;;;;;;;1.55;1.45;;;;;;;3.08;79.02;99668.84;5066179;28;20075;-68
2023/11/19 11:26:47;;;;;;;1.10;1.05;;;;;;;3.05;79.05;99660.28;5065542;28;20136;-67
2023/11/19 11:29:46;;;;;;;0.82;0.82;;;;;;;3.16;78.56;99671.50;5067343;28;20106;-67
2023/11/19 11:32:35;;;;;;;0.90;0.90;;;;;;;3.19;78.44;99671.53;5067385;28;20082;-67